sensor_id;sensor_type;location;lat;lon;timestamp;P1;durP1;ratioP1;P2;durP2;ratioP2
13764;SDS011;6953;48.810;9.204;2023-07-13T00:00:11;0.17;;;0.17;;
13764;SDS011;6953;48.810;9.204;2023-07-13T00:02:37;0.10;;;0.10;;
13764;SDS011;6953;48.810;9.204;2023-07-13T00:05:02;0.20;;;0.20;;
13764;SDS011;6953;48.810;9.204;2023-07-13T00:07:27;0.20;;;0.20;;
13764;SDS011;6953;48.810;9.204;2023-07-13T00:09:53;0.20;;;0.20;;
13764;SDS011;6953;48.810;9.204;2023-07-13T00:12:22;0.10;;;0.10;;
13764;SDS011;6953;48.810;9.204;2023-07-13T00:14:55;0.10;;;0.10;;
13764;SDS011;6953;48.810;9.204;2023-07-13T00:17:25;0.13;;;0.13;;
13764;SDS011;6953;48.810;9.204;2023-07-13T00:19:51;0.10;;;0.10;;
13764;SDS011;6953;48.810;9.204;2023-07-13T00:22:17;0.20;;;0.20;;
13764;SDS011;6953;48.810;9.204;2023-07-13T00:31:04;0.10;;;0.10;;
13764;SDS011;6953;48.810;9.204;2023-07-13T00:33:30;0.10;;;0.10;;
13764;SDS011;6953;48.810;9.204;2023-07-13T00:35:55;0.20;;;0.20;;
13764;SDS011;6953;48.810;9.204;2023-07-13T00:38:21;0.20;;;0.20;;
13764;SDS011;6953;48.810;9.204;2023-07-13T00:40:47;0.10;;;0.10;;
13764;SDS011;6953;48.810;9.204;2023-07-13T00:43:13;0.20;;;0.20;;
13764;SDS011;6953;48.810;9.204;2023-07-13T00:48:09;0.20;;;0.20;;
13764;SDS011;6953;48.810;9.204;2023-07-13T00:51:01;0.13;;;0.13;;
13764;SDS011;6953;48.810;9.204;2023-07-13T00:53:27;0.20;;;0.20;;
13764;SDS011;6953;48.810;9.204;2023-07-13T00:55:55;0.10;;;0.10;;
13764;SDS011;6953;48.810;9.204;2023-07-13T00:58:21;0.10;;;0.10;;
13764;SDS011;6953;48.810;9.204;2023-07-13T01:00:47;0.20;;;0.20;;
13764;SDS011;6953;48.810;9.204;2023-07-13T01:03:14;0.20;;;0.20;;
13764;SDS011;6953;48.810;9.204;2023-07-13T01:05:40;0.13;;;0.13;;
13764;SDS011;6953;48.810;9.204;2023-07-13T01:08:06;0.10;;;0.10;;
13764;SDS011;6953;48.810;9.204;2023-07-13T01:10:32;0.20;;;0.20;;
13764;SDS011;6953;48.810;9.204;2023-07-13T01:13:05;0.10;;;0.10;;
13764;SDS011;6953;48.810;9.204;2023-07-13T01:15:42;0.20;;;0.20;;
13764;SDS011;6953;48.810;9.204;2023-07-13T01:18:10;0.10;;;0.10;;
13764;SDS011;6953;48.810;9.204;2023-07-13T01:20:38;0.20;;;0.20;;
13764;SDS011;6953;48.810;9.204;2023-07-13T01:23:09;0.10;;;0.10;;
13764;SDS011;6953;48.810;9.204;2023-07-13T01:25:35;0.20;;;0.20;;
13764;SDS011;6953;48.810;9.204;2023-07-13T01:28:02;0.20;;;0.20;;
13764;SDS011;6953;48.810;9.204;2023-07-13T01:30:28;0.20;;;0.20;;
13764;SDS011;6953;48.810;9.204;2023-07-13T01:32:54;0.20;;;0.20;;
13764;SDS011;6953;48.810;9.204;2023-07-13T01:35:19;0.20;;;0.20;;
13764;SDS011;6953;48.810;9.204;2023-07-13T01:37:45;0.15;;;0.15;;
13764;SDS011;6953;48.810;9.204;2023-07-13T01:40:10;0.20;;;0.20;;
13764;SDS011;6953;48.810;9.204;2023-07-13T01:42:37;0.20;;;0.20;;
13764;SDS011;6953;48.810;9.204;2023-07-13T01:45:02;0.10;;;0.10;;
13764;SDS011;6953;48.810;9.204;2023-07-13T01:47:28;0.20;;;0.20;;
13764;SDS011;6953;48.810;9.204;2023-07-13T01:49:55;0.20;;;0.20;;
13764;SDS011;6953;48.810;9.204;2023-07-13T01:52:21;0.20;;;0.20;;
13764;SDS011;6953;48.810;9.204;2023-07-13T01:54:47;0.20;;;0.20;;
13764;SDS011;6953;48.810;9.204;2023-07-13T01:57:12;0.20;;;0.20;;
13764;SDS011;6953;48.810;9.204;2023-07-13T01:59:37;0.20;;;0.20;;
13764;SDS011;6953;48.810;9.204;2023-07-13T02:02:03;0.20;;;0.20;;
13764;SDS011;6953;48.810;9.204;2023-07-13T02:04:28;0.20;;;0.20;;
13764;SDS011;6953;48.810;9.204;2023-07-13T02:06:53;0.20;;;0.20;;
13764;SDS011;6953;48.810;9.204;2023-07-13T02:09:20;0.20;;;0.20;;
13764;SDS011;6953;48.810;9.204;2023-07-13T02:11:45;0.20;;;0.20;;
13764;SDS011;6953;48.810;9.204;2023-07-13T02:14:11;0.20;;;0.20;;
13764;SDS011;6953;48.810;9.204;2023-07-13T02:16:36;0.20;;;0.20;;
13764;SDS011;6953;48.810;9.204;2023-07-13T02:19:01;0.20;;;0.20;;
13764;SDS011;6953;48.810;9.204;2023-07-13T02:21:27;0.20;;;0.20;;
13764;SDS011;6953;48.810;9.204;2023-07-13T02:23:52;0.20;;;0.20;;
13764;SDS011;6953;48.810;9.204;2023-07-13T02:26:19;0.20;;;0.20;;
13764;SDS011;6953;48.810;9.204;2023-07-13T02:28:45;0.20;;;0.20;;
13764;SDS011;6953;48.810;9.204;2023-07-13T02:31:11;0.20;;;0.20;;
13764;SDS011;6953;48.810;9.204;2023-07-13T02:33:38;0.20;;;0.20;;
13764;SDS011;6953;48.810;9.204;2023-07-13T02:36:04;0.20;;;0.20;;
13764;SDS011;6953;48.810;9.204;2023-07-13T02:38:33;0.20;;;0.20;;
13764;SDS011;6953;48.810;9.204;2023-07-13T02:41:00;0.20;;;0.20;;
13764;SDS011;6953;48.810;9.204;2023-07-13T02:43:26;0.20;;;0.20;;
13764;SDS011;6953;48.810;9.204;2023-07-13T02:45:52;0.20;;;0.20;;
13764;SDS011;6953;48.810;9.204;2023-07-13T02:48:17;0.20;;;0.20;;
13764;SDS011;6953;48.810;9.204;2023-07-13T02:50:43;0.20;;;0.20;;
13764;SDS011;6953;48.810;9.204;2023-07-13T02:53:09;0.20;;;0.20;;
13764;SDS011;6953;48.810;9.204;2023-07-13T02:55:34;0.22;;;0.22;;
13764;SDS011;6953;48.810;9.204;2023-07-13T02:58:00;0.30;;;0.30;;
13764;SDS011;6953;48.810;9.204;2023-07-13T03:00:26;0.20;;;0.20;;
13764;SDS011;6953;48.810;9.204;2023-07-13T03:02:52;0.20;;;0.20;;
13764;SDS011;6953;48.810;9.204;2023-07-13T03:05:18;0.20;;;0.20;;
13764;SDS011;6953;48.810;9.204;2023-07-13T03:07:43;0.22;;;0.22;;
13764;SDS011;6953;48.810;9.204;2023-07-13T03:10:09;0.20;;;0.20;;
13764;SDS011;6953;48.810;9.204;2023-07-13T03:12:34;0.25;;;0.25;;
13764;SDS011;6953;48.810;9.204;2023-07-13T03:14:59;0.20;;;0.20;;
13764;SDS011;6953;48.810;9.204;2023-07-13T03:17:25;0.20;;;0.20;;
13764;SDS011;6953;48.810;9.204;2023-07-13T03:19:50;0.20;;;0.20;;
13764;SDS011;6953;48.810;9.204;2023-07-13T03:22:17;0.20;;;0.20;;
13764;SDS011;6953;48.810;9.204;2023-07-13T03:24:43;0.20;;;0.20;;
13764;SDS011;6953;48.810;9.204;2023-07-13T03:27:08;0.20;;;0.20;;
13764;SDS011;6953;48.810;9.204;2023-07-13T03:29:34;0.20;;;0.20;;
13764;SDS011;6953;48.810;9.204;2023-07-13T03:31:59;0.20;;;0.20;;
13764;SDS011;6953;48.810;9.204;2023-07-13T03:34:24;0.20;;;0.20;;
13764;SDS011;6953;48.810;9.204;2023-07-13T03:36:50;0.20;;;0.20;;
13764;SDS011;6953;48.810;9.204;2023-07-13T03:39:15;0.20;;;0.20;;
13764;SDS011;6953;48.810;9.204;2023-07-13T03:41:40;0.20;;;0.20;;
13764;SDS011;6953;48.810;9.204;2023-07-13T03:44:06;0.10;;;0.10;;
13764;SDS011;6953;48.810;9.204;2023-07-13T03:46:31;0.20;;;0.20;;
13764;SDS011;6953;48.810;9.204;2023-07-13T03:48:58;0.20;;;0.20;;
13764;SDS011;6953;48.810;9.204;2023-07-13T03:51:24;0.20;;;0.20;;
13764;SDS011;6953;48.810;9.204;2023-07-13T03:53:49;0.20;;;0.20;;
13764;SDS011;6953;48.810;9.204;2023-07-13T03:56:15;0.20;;;0.20;;
13764;SDS011;6953;48.810;9.204;2023-07-13T03:58:42;0.20;;;0.20;;
13764;SDS011;6953;48.810;9.204;2023-07-13T04:01:09;0.20;;;0.20;;
13764;SDS011;6953;48.810;9.204;2023-07-13T04:03:36;0.10;;;0.10;;
13764;SDS011;6953;48.810;9.204;2023-07-13T04:06:02;0.10;;;0.10;;
13764;SDS011;6953;48.810;9.204;2023-07-13T04:08:30;0.20;;;0.20;;
13764;SDS011;6953;48.810;9.204;2023-07-13T04:10:57;0.20;;;0.20;;
13764;SDS011;6953;48.810;9.204;2023-07-13T04:13:23;0.20;;;0.20;;
13764;SDS011;6953;48.810;9.204;2023-07-13T04:15:50;0.20;;;0.20;;
13764;SDS011;6953;48.810;9.204;2023-07-13T04:18:16;0.10;;;0.10;;
13764;SDS011;6953;48.810;9.204;2023-07-13T04:20:41;0.20;;;0.20;;
13764;SDS011;6953;48.810;9.204;2023-07-13T04:23:07;0.20;;;0.20;;
13764;SDS011;6953;48.810;9.204;2023-07-13T04:25:32;0.20;;;0.20;;
13764;SDS011;6953;48.810;9.204;2023-07-13T04:27:57;0.20;;;0.20;;
13764;SDS011;6953;48.810;9.204;2023-07-13T04:30:23;0.20;;;0.20;;
13764;SDS011;6953;48.810;9.204;2023-07-13T04:32:50;0.20;;;0.20;;
13764;SDS011;6953;48.810;9.204;2023-07-13T04:35:17;0.20;;;0.20;;
13764;SDS011;6953;48.810;9.204;2023-07-13T04:37:43;0.20;;;0.20;;
13764;SDS011;6953;48.810;9.204;2023-07-13T04:40:08;0.20;;;0.20;;
13764;SDS011;6953;48.810;9.204;2023-07-13T04:42:37;0.20;;;0.20;;
13764;SDS011;6953;48.810;9.204;2023-07-13T04:45:02;0.10;;;0.10;;
13764;SDS011;6953;48.810;9.204;2023-07-13T04:47:30;0.10;;;0.10;;
13764;SDS011;6953;48.810;9.204;2023-07-13T04:49:55;0.17;;;0.17;;
13764;SDS011;6953;48.810;9.204;2023-07-13T04:52:22;0.20;;;0.20;;
13764;SDS011;6953;48.810;9.204;2023-07-13T04:54:47;0.20;;;0.20;;
13764;SDS011;6953;48.810;9.204;2023-07-13T04:57:13;0.20;;;0.20;;
13764;SDS011;6953;48.810;9.204;2023-07-13T04:59:38;0.20;;;0.20;;
13764;SDS011;6953;48.810;9.204;2023-07-13T05:02:03;0.20;;;0.20;;
13764;SDS011;6953;48.810;9.204;2023-07-13T05:04:29;0.10;;;0.10;;
13764;SDS011;6953;48.810;9.204;2023-07-13T05:06:54;0.10;;;0.10;;
13764;SDS011;6953;48.810;9.204;2023-07-13T05:09:20;0.20;;;0.20;;
13764;SDS011;6953;48.810;9.204;2023-07-13T05:11:45;0.20;;;0.20;;
13764;SDS011;6953;48.810;9.204;2023-07-13T05:14:10;0.20;;;0.20;;
13764;SDS011;6953;48.810;9.204;2023-07-13T05:16:36;0.20;;;0.20;;
13764;SDS011;6953;48.810;9.204;2023-07-13T05:19:01;0.20;;;0.20;;
13764;SDS011;6953;48.810;9.204;2023-07-13T05:21:27;0.10;;;0.10;;
13764;SDS011;6953;48.810;9.204;2023-07-13T05:23:53;0.10;;;0.10;;
13764;SDS011;6953;48.810;9.204;2023-07-13T05:26:18;0.20;;;0.20;;
13764;SDS011;6953;48.810;9.204;2023-07-13T05:28:45;0.10;;;0.10;;
13764;SDS011;6953;48.810;9.204;2023-07-13T05:31:11;0.10;;;0.10;;
13764;SDS011;6953;48.810;9.204;2023-07-13T05:33:36;0.10;;;0.10;;
13764;SDS011;6953;48.810;9.204;2023-07-13T05:36:01;0.10;;;0.10;;
13764;SDS011;6953;48.810;9.204;2023-07-13T05:38:27;0.10;;;0.10;;
13764;SDS011;6953;48.810;9.204;2023-07-13T05:40:53;0.20;;;0.20;;
13764;SDS011;6953;48.810;9.204;2023-07-13T05:43:21;0.17;;;0.17;;
13764;SDS011;6953;48.810;9.204;2023-07-13T05:45:46;0.10;;;0.10;;
13764;SDS011;6953;48.810;9.204;2023-07-13T05:48:11;0.10;;;0.10;;
13764;SDS011;6953;48.810;9.204;2023-07-13T05:50:38;0.10;;;0.10;;
13764;SDS011;6953;48.810;9.204;2023-07-13T05:53:03;0.10;;;0.10;;
13764;SDS011;6953;48.810;9.204;2023-07-13T05:55:29;0.10;;;0.10;;
13764;SDS011;6953;48.810;9.204;2023-07-13T05:57:54;0.10;;;0.10;;
13764;SDS011;6953;48.810;9.204;2023-07-13T06:00:19;0.10;;;0.10;;
13764;SDS011;6953;48.810;9.204;2023-07-13T06:02:45;0.10;;;0.10;;
13764;SDS011;6953;48.810;9.204;2023-07-13T06:05:10;0.10;;;0.10;;
13764;SDS011;6953;48.810;9.204;2023-07-13T06:07:36;0.10;;;0.10;;
13764;SDS011;6953;48.810;9.204;2023-07-13T06:10:02;0.10;;;0.10;;
13764;SDS011;6953;48.810;9.204;2023-07-13T06:12:28;0.10;;;0.10;;
13764;SDS011;6953;48.810;9.204;2023-07-13T06:14:53;0.10;;;0.10;;
13764;SDS011;6953;48.810;9.204;2023-07-13T06:17:18;0.10;;;0.10;;
13764;SDS011;6953;48.810;9.204;2023-07-13T06:19:44;0.10;;;0.10;;
13764;SDS011;6953;48.810;9.204;2023-07-13T06:22:09;0.00;;;0.00;;
13764;SDS011;6953;48.810;9.204;2023-07-13T06:24:34;0.00;;;0.00;;
13764;SDS011;6953;48.810;9.204;2023-07-13T06:27:00;0.00;;;0.00;;
13764;SDS011;6953;48.810;9.204;2023-07-13T06:29:25;0.10;;;0.10;;
13764;SDS011;6953;48.810;9.204;2023-07-13T06:31:50;0.00;;;0.00;;
13764;SDS011;6953;48.810;9.204;2023-07-13T06:34:16;0.00;;;0.00;;
13764;SDS011;6953;48.810;9.204;2023-07-13T06:36:41;0.00;;;0.00;;
13764;SDS011;6953;48.810;9.204;2023-07-13T06:39:06;0.00;;;0.00;;
13764;SDS011;6953;48.810;9.204;2023-07-13T06:41:32;0.00;;;0.00;;
13764;SDS011;6953;48.810;9.204;2023-07-13T06:43:58;0.00;;;0.00;;
13764;SDS011;6953;48.810;9.204;2023-07-13T06:46:23;0.00;;;0.00;;
13764;SDS011;6953;48.810;9.204;2023-07-13T06:48:49;0.08;;;0.08;;
13764;SDS011;6953;48.810;9.204;2023-07-13T06:51:14;0.00;;;0.00;;
13764;SDS011;6953;48.810;9.204;2023-07-13T06:53:39;0.20;;;0.20;;
13764;SDS011;6953;48.810;9.204;2023-07-13T06:56:05;0.20;;;0.20;;
13764;SDS011;6953;48.810;9.204;2023-07-13T06:58:30;0.20;;;0.20;;
13764;SDS011;6953;48.810;9.204;2023-07-13T07:00:56;0.20;;;0.20;;
13764;SDS011;6953;48.810;9.204;2023-07-13T07:03:21;0.20;;;0.20;;
13764;SDS011;6953;48.810;9.204;2023-07-13T07:05:47;0.20;;;0.20;;
13764;SDS011;6953;48.810;9.204;2023-07-13T07:08:12;0.20;;;0.20;;
13764;SDS011;6953;48.810;9.204;2023-07-13T07:10:38;0.20;;;0.20;;
13764;SDS011;6953;48.810;9.204;2023-07-13T07:13:03;0.20;;;0.20;;
13764;SDS011;6953;48.810;9.204;2023-07-13T07:15:29;0.20;;;0.20;;
13764;SDS011;6953;48.810;9.204;2023-07-13T07:17:55;0.20;;;0.20;;
13764;SDS011;6953;48.810;9.204;2023-07-13T07:20:20;0.20;;;0.20;;
13764;SDS011;6953;48.810;9.204;2023-07-13T07:22:46;0.20;;;0.20;;
13764;SDS011;6953;48.810;9.204;2023-07-13T07:25:11;0.20;;;0.20;;
13764;SDS011;6953;48.810;9.204;2023-07-13T07:27:37;0.20;;;0.20;;
13764;SDS011;6953;48.810;9.204;2023-07-13T07:30:03;0.10;;;0.10;;
13764;SDS011;6953;48.810;9.204;2023-07-13T07:32:29;0.10;;;0.10;;
13764;SDS011;6953;48.810;9.204;2023-07-13T07:34:56;0.17;;;0.17;;
13764;SDS011;6953;48.810;9.204;2023-07-13T07:37:22;0.20;;;0.20;;
13764;SDS011;6953;48.810;9.204;2023-07-13T07:39:47;0.20;;;0.20;;
13764;SDS011;6953;48.810;9.204;2023-07-13T07:42:12;0.20;;;0.20;;
13764;SDS011;6953;48.810;9.204;2023-07-13T07:44:38;0.20;;;0.20;;
13764;SDS011;6953;48.810;9.204;2023-07-13T07:47:05;0.20;;;0.20;;
13764;SDS011;6953;48.810;9.204;2023-07-13T07:49:31;0.10;;;0.10;;
13764;SDS011;6953;48.810;9.204;2023-07-13T07:51:56;0.20;;;0.20;;
13764;SDS011;6953;48.810;9.204;2023-07-13T07:54:21;0.10;;;0.10;;
13764;SDS011;6953;48.810;9.204;2023-07-13T07:56:47;0.20;;;0.20;;
13764;SDS011;6953;48.810;9.204;2023-07-13T07:59:12;0.20;;;0.20;;
13764;SDS011;6953;48.810;9.204;2023-07-13T08:01:37;0.10;;;0.10;;
13764;SDS011;6953;48.810;9.204;2023-07-13T08:04:02;0.10;;;0.10;;
13764;SDS011;6953;48.810;9.204;2023-07-13T08:06:28;0.17;;;0.17;;
13764;SDS011;6953;48.810;9.204;2023-07-13T08:08:53;0.10;;;0.10;;
13764;SDS011;6953;48.810;9.204;2023-07-13T08:11:20;0.20;;;0.20;;
13764;SDS011;6953;48.810;9.204;2023-07-13T08:13:45;0.10;;;0.10;;
13764;SDS011;6953;48.810;9.204;2023-07-13T08:16:10;0.17;;;0.17;;
13764;SDS011;6953;48.810;9.204;2023-07-13T08:18:36;0.10;;;0.10;;
13764;SDS011;6953;48.810;9.204;2023-07-13T08:21:05;0.10;;;0.10;;
13764;SDS011;6953;48.810;9.204;2023-07-13T08:23:31;0.10;;;0.10;;
13764;SDS011;6953;48.810;9.204;2023-07-13T08:25:57;0.10;;;0.10;;
13764;SDS011;6953;48.810;9.204;2023-07-13T08:28:23;0.10;;;0.10;;
13764;SDS011;6953;48.810;9.204;2023-07-13T08:30:49;0.20;;;0.20;;
13764;SDS011;6953;48.810;9.204;2023-07-13T08:33:18;0.10;;;0.10;;
13764;SDS011;6953;48.810;9.204;2023-07-13T08:35:48;0.10;;;0.10;;
13764;SDS011;6953;48.810;9.204;2023-07-13T08:38:14;0.10;;;0.10;;
13764;SDS011;6953;48.810;9.204;2023-07-13T08:40:40;0.10;;;0.10;;
13764;SDS011;6953;48.810;9.204;2023-07-13T08:43:08;0.10;;;0.10;;
13764;SDS011;6953;48.810;9.204;2023-07-13T08:45:43;0.10;;;0.10;;
13764;SDS011;6953;48.810;9.204;2023-07-13T08:48:18;0.10;;;0.10;;
13764;SDS011;6953;48.810;9.204;2023-07-13T08:50:57;0.10;;;0.10;;
13764;SDS011;6953;48.810;9.204;2023-07-13T08:53:29;0.10;;;0.10;;
13764;SDS011;6953;48.810;9.204;2023-07-13T08:56:02;0.10;;;0.10;;
13764;SDS011;6953;48.810;9.204;2023-07-13T08:58:30;0.10;;;0.10;;
13764;SDS011;6953;48.810;9.204;2023-07-13T09:00:58;0.10;;;0.10;;
13764;SDS011;6953;48.810;9.204;2023-07-13T09:04:22;0.10;;;0.10;;
13764;SDS011;6953;48.810;9.204;2023-07-13T09:06:36;0.10;;;0.10;;
13764;SDS011;6953;48.810;9.204;2023-07-13T09:09:18;0.10;;;0.10;;
13764;SDS011;6953;48.810;9.204;2023-07-13T09:12:13;0.10;;;0.10;;
13764;SDS011;6953;48.810;9.204;2023-07-13T09:14:47;0.00;;;0.00;;
13764;SDS011;6953;48.810;9.204;2023-07-13T09:17:19;0.10;;;0.10;;
13764;SDS011;6953;48.810;9.204;2023-07-13T09:19:53;0.10;;;0.10;;
13764;SDS011;6953;48.810;9.204;2023-07-13T09:22:24;0.10;;;0.10;;
13764;SDS011;6953;48.810;9.204;2023-07-13T09:24:54;0.10;;;0.10;;
13764;SDS011;6953;48.810;9.204;2023-07-13T09:27:46;0.10;;;0.10;;
13764;SDS011;6953;48.810;9.204;2023-07-13T09:30:17;0.10;;;0.10;;
13764;SDS011;6953;48.810;9.204;2023-07-13T09:32:50;0.10;;;0.10;;
13764;SDS011;6953;48.810;9.204;2023-07-13T09:35:21;0.15;;;0.15;;
13764;SDS011;6953;48.810;9.204;2023-07-13T09:37:49;0.10;;;0.10;;
13764;SDS011;6953;48.810;9.204;2023-07-13T09:40:58;0.10;;;0.10;;
13764;SDS011;6953;48.810;9.204;2023-07-13T09:43:13;0.10;;;0.10;;
13764;SDS011;6953;48.810;9.204;2023-07-13T09:45:40;0.10;;;0.10;;
13764;SDS011;6953;48.810;9.204;2023-07-13T09:48:06;0.10;;;0.10;;
13764;SDS011;6953;48.810;9.204;2023-07-13T09:50:38;0.10;;;0.10;;
13764;SDS011;6953;48.810;9.204;2023-07-13T09:53:04;0.10;;;0.10;;
13764;SDS011;6953;48.810;9.204;2023-07-13T09:55:37;0.10;;;0.10;;
13764;SDS011;6953;48.810;9.204;2023-07-13T09:58:06;0.10;;;0.10;;
13764;SDS011;6953;48.810;9.204;2023-07-13T10:00:35;0.10;;;0.10;;
13764;SDS011;6953;48.810;9.204;2023-07-13T10:03:04;0.10;;;0.10;;
13764;SDS011;6953;48.810;9.204;2023-07-13T10:05:45;0.10;;;0.10;;
13764;SDS011;6953;48.810;9.204;2023-07-13T10:08:23;0.10;;;0.10;;
13764;SDS011;6953;48.810;9.204;2023-07-13T10:10:52;0.10;;;0.10;;
13764;SDS011;6953;48.810;9.204;2023-07-13T10:13:26;0.10;;;0.10;;
13764;SDS011;6953;48.810;9.204;2023-07-13T10:15:53;0.10;;;0.10;;
13764;SDS011;6953;48.810;9.204;2023-07-13T10:18:19;0.10;;;0.10;;
13764;SDS011;6953;48.810;9.204;2023-07-13T10:20:45;0.10;;;0.10;;
13764;SDS011;6953;48.810;9.204;2023-07-13T10:23:13;0.10;;;0.10;;
13764;SDS011;6953;48.810;9.204;2023-07-13T10:25:46;0.10;;;0.10;;
13764;SDS011;6953;48.810;9.204;2023-07-13T10:30:53;0.10;;;0.10;;
13764;SDS011;6953;48.810;9.204;2023-07-13T10:33:21;0.10;;;0.10;;
13764;SDS011;6953;48.810;9.204;2023-07-13T10:35:47;0.10;;;0.10;;
13764;SDS011;6953;48.810;9.204;2023-07-13T10:38:18;0.10;;;0.10;;
13764;SDS011;6953;48.810;9.204;2023-07-13T10:41:07;0.10;;;0.10;;
13764;SDS011;6953;48.810;9.204;2023-07-13T10:43:47;0.10;;;0.10;;
13764;SDS011;6953;48.810;9.204;2023-07-13T10:46:16;0.10;;;0.10;;
13764;SDS011;6953;48.810;9.204;2023-07-13T10:48:45;0.10;;;0.10;;
13764;SDS011;6953;48.810;9.204;2023-07-13T10:51:14;0.10;;;0.10;;
13764;SDS011;6953;48.810;9.204;2023-07-13T10:53:42;0.10;;;0.10;;
13764;SDS011;6953;48.810;9.204;2023-07-13T10:56:28;0.10;;;0.10;;
13764;SDS011;6953;48.810;9.204;2023-07-13T10:59:14;0.10;;;0.10;;
13764;SDS011;6953;48.810;9.204;2023-07-13T11:01:50;0.10;;;0.10;;
13764;SDS011;6953;48.810;9.204;2023-07-13T11:04:17;0.10;;;0.10;;
13764;SDS011;6953;48.810;9.204;2023-07-13T11:06:45;0.10;;;0.10;;
13764;SDS011;6953;48.810;9.204;2023-07-13T11:11:43;0.10;;;0.10;;
13764;SDS011;6953;48.810;9.204;2023-07-13T11:14:28;0.10;;;0.10;;
13764;SDS011;6953;48.810;9.204;2023-07-13T11:16:56;0.20;;;0.20;;
13764;SDS011;6953;48.810;9.204;2023-07-13T11:22:01;0.10;;;0.10;;
13764;SDS011;6953;48.810;9.204;2023-07-13T11:24:33;0.10;;;0.10;;
13764;SDS011;6953;48.810;9.204;2023-07-13T11:30:06;0.10;;;0.10;;
13764;SDS011;6953;48.810;9.204;2023-07-13T11:32:33;0.10;;;0.10;;
13764;SDS011;6953;48.810;9.204;2023-07-13T11:35:00;0.10;;;0.10;;
13764;SDS011;6953;48.810;9.204;2023-07-13T11:37:25;0.10;;;0.10;;
13764;SDS011;6953;48.810;9.204;2023-07-13T11:39:51;0.10;;;0.10;;
13764;SDS011;6953;48.810;9.204;2023-07-13T11:42:18;0.10;;;0.10;;
13764;SDS011;6953;48.810;9.204;2023-07-13T11:44:46;0.10;;;0.10;;
13764;SDS011;6953;48.810;9.204;2023-07-13T11:47:17;0.17;;;0.17;;
13764;SDS011;6953;48.810;9.204;2023-07-13T11:49:50;0.10;;;0.10;;
13764;SDS011;6953;48.810;9.204;2023-07-13T11:52:19;0.10;;;0.10;;
13764;SDS011;6953;48.810;9.204;2023-07-13T11:54:52;0.10;;;0.10;;
13764;SDS011;6953;48.810;9.204;2023-07-13T11:59:59;0.10;;;0.10;;
13764;SDS011;6953;48.810;9.204;2023-07-13T12:02:33;0.10;;;0.10;;
13764;SDS011;6953;48.810;9.204;2023-07-13T12:05:04;0.10;;;0.10;;
13764;SDS011;6953;48.810;9.204;2023-07-13T12:07:31;0.10;;;0.10;;
13764;SDS011;6953;48.810;9.204;2023-07-13T12:10:01;0.00;;;0.00;;
13764;SDS011;6953;48.810;9.204;2023-07-13T12:12:28;0.00;;;0.00;;
13764;SDS011;6953;48.810;9.204;2023-07-13T12:14:55;0.00;;;0.00;;
13764;SDS011;6953;48.810;9.204;2023-07-13T12:17:21;0.00;;;0.00;;
13764;SDS011;6953;48.810;9.204;2023-07-13T12:19:48;0.00;;;0.00;;
13764;SDS011;6953;48.810;9.204;2023-07-13T12:22:16;0.00;;;0.00;;
13764;SDS011;6953;48.810;9.204;2023-07-13T12:24:43;0.00;;;0.00;;
13764;SDS011;6953;48.810;9.204;2023-07-13T12:27:25;0.00;;;0.00;;
13764;SDS011;6953;48.810;9.204;2023-07-13T12:29:53;0.00;;;0.00;;
13764;SDS011;6953;48.810;9.204;2023-07-13T12:32:24;0.00;;;0.00;;
13764;SDS011;6953;48.810;9.204;2023-07-13T12:34:54;0.00;;;0.00;;
13764;SDS011;6953;48.810;9.204;2023-07-13T12:37:22;0.00;;;0.00;;
13764;SDS011;6953;48.810;9.204;2023-07-13T12:39:48;0.00;;;0.00;;
13764;SDS011;6953;48.810;9.204;2023-07-13T12:42:24;0.00;;;0.00;;
13764;SDS011;6953;48.810;9.204;2023-07-13T12:44:53;0.00;;;0.00;;
13764;SDS011;6953;48.810;9.204;2023-07-13T12:47:26;0.00;;;0.00;;
13764;SDS011;6953;48.810;9.204;2023-07-13T12:49:54;0.00;;;0.00;;
13764;SDS011;6953;48.810;9.204;2023-07-13T12:52:32;0.00;;;0.00;;
13764;SDS011;6953;48.810;9.204;2023-07-13T12:55:11;0.00;;;0.00;;
13764;SDS011;6953;48.810;9.204;2023-07-13T12:57:41;0.00;;;0.00;;
13764;SDS011;6953;48.810;9.204;2023-07-13T13:02:55;0.00;;;0.00;;
13764;SDS011;6953;48.810;9.204;2023-07-13T13:05:22;0.00;;;0.00;;
13764;SDS011;6953;48.810;9.204;2023-07-13T13:07:51;0.00;;;0.00;;
13764;SDS011;6953;48.810;9.204;2023-07-13T13:10:17;0.10;;;0.10;;
13764;SDS011;6953;48.810;9.204;2023-07-13T13:12:42;0.10;;;0.10;;
13764;SDS011;6953;48.810;9.204;2023-07-13T13:15:08;0.00;;;0.00;;
13764;SDS011;6953;48.810;9.204;2023-07-13T13:17:34;0.00;;;0.00;;
13764;SDS011;6953;48.810;9.204;2023-07-13T13:20:00;0.00;;;0.00;;
13764;SDS011;6953;48.810;9.204;2023-07-13T13:22:25;0.00;;;0.00;;
13764;SDS011;6953;48.810;9.204;2023-07-13T13:24:51;0.00;;;0.00;;
13764;SDS011;6953;48.810;9.204;2023-07-13T13:27:16;0.00;;;0.00;;
13764;SDS011;6953;48.810;9.204;2023-07-13T13:29:44;0.10;;;0.10;;
13764;SDS011;6953;48.810;9.204;2023-07-13T13:32:14;0.10;;;0.10;;
13764;SDS011;6953;48.810;9.204;2023-07-13T13:34:40;0.10;;;0.10;;
13764;SDS011;6953;48.810;9.204;2023-07-13T13:37:12;0.10;;;0.10;;
13764;SDS011;6953;48.810;9.204;2023-07-13T13:39:45;0.10;;;0.10;;
13764;SDS011;6953;48.810;9.204;2023-07-13T13:42:10;0.10;;;0.10;;
13764;SDS011;6953;48.810;9.204;2023-07-13T13:44:35;0.10;;;0.10;;
13764;SDS011;6953;48.810;9.204;2023-07-13T13:47:01;0.10;;;0.10;;
13764;SDS011;6953;48.810;9.204;2023-07-13T13:49:28;0.10;;;0.10;;
13764;SDS011;6953;48.810;9.204;2023-07-13T13:51:55;0.10;;;0.10;;
13764;SDS011;6953;48.810;9.204;2023-07-13T13:54:21;0.10;;;0.10;;
13764;SDS011;6953;48.810;9.204;2023-07-13T13:56:49;0.10;;;0.10;;
13764;SDS011;6953;48.810;9.204;2023-07-13T13:59:16;0.10;;;0.10;;
13764;SDS011;6953;48.810;9.204;2023-07-13T14:01:42;0.10;;;0.10;;
13764;SDS011;6953;48.810;9.204;2023-07-13T14:04:16;0.10;;;0.10;;
13764;SDS011;6953;48.810;9.204;2023-07-13T14:06:43;0.10;;;0.10;;
13764;SDS011;6953;48.810;9.204;2023-07-13T14:09:10;0.10;;;0.10;;
13764;SDS011;6953;48.810;9.204;2023-07-13T14:11:38;0.10;;;0.10;;
13764;SDS011;6953;48.810;9.204;2023-07-13T14:14:08;0.10;;;0.10;;
13764;SDS011;6953;48.810;9.204;2023-07-13T14:16:39;0.10;;;0.10;;
13764;SDS011;6953;48.810;9.204;2023-07-13T14:19:07;0.10;;;0.10;;
13764;SDS011;6953;48.810;9.204;2023-07-13T14:21:35;0.10;;;0.10;;
13764;SDS011;6953;48.810;9.204;2023-07-13T14:24:00;0.10;;;0.10;;
13764;SDS011;6953;48.810;9.204;2023-07-13T14:26:26;0.10;;;0.10;;
13764;SDS011;6953;48.810;9.204;2023-07-13T14:28:53;0.10;;;0.10;;
13764;SDS011;6953;48.810;9.204;2023-07-13T14:31:21;0.10;;;0.10;;
13764;SDS011;6953;48.810;9.204;2023-07-13T14:33:47;0.10;;;0.10;;
13764;SDS011;6953;48.810;9.204;2023-07-13T14:36:26;0.10;;;0.10;;
13764;SDS011;6953;48.810;9.204;2023-07-13T14:38:55;0.10;;;0.10;;
13764;SDS011;6953;48.810;9.204;2023-07-13T14:41:22;0.10;;;0.10;;
13764;SDS011;6953;48.810;9.204;2023-07-13T14:43:47;0.10;;;0.10;;
13764;SDS011;6953;48.810;9.204;2023-07-13T14:46:24;0.10;;;0.10;;
13764;SDS011;6953;48.810;9.204;2023-07-13T14:51:30;0.10;;;0.10;;
13764;SDS011;6953;48.810;9.204;2023-07-13T14:54:00;0.10;;;0.10;;
13764;SDS011;6953;48.810;9.204;2023-07-13T14:56:27;0.10;;;0.10;;
13764;SDS011;6953;48.810;9.204;2023-07-13T14:58:52;0.10;;;0.10;;
13764;SDS011;6953;48.810;9.204;2023-07-13T15:01:18;0.10;;;0.10;;
13764;SDS011;6953;48.810;9.204;2023-07-13T15:03:45;0.10;;;0.10;;
13764;SDS011;6953;48.810;9.204;2023-07-13T15:06:12;0.10;;;0.10;;
13764;SDS011;6953;48.810;9.204;2023-07-13T15:08:39;0.10;;;0.10;;
13764;SDS011;6953;48.810;9.204;2023-07-13T15:11:06;0.10;;;0.10;;
13764;SDS011;6953;48.810;9.204;2023-07-13T15:13:32;0.10;;;0.10;;
13764;SDS011;6953;48.810;9.204;2023-07-13T15:15:58;0.10;;;0.10;;
13764;SDS011;6953;48.810;9.204;2023-07-13T15:18:24;0.10;;;0.10;;
13764;SDS011;6953;48.810;9.204;2023-07-13T15:20:50;0.10;;;0.10;;
13764;SDS011;6953;48.810;9.204;2023-07-13T15:23:17;0.10;;;0.10;;
13764;SDS011;6953;48.810;9.204;2023-07-13T15:25:43;0.10;;;0.10;;
13764;SDS011;6953;48.810;9.204;2023-07-13T15:28:09;0.10;;;0.10;;
13764;SDS011;6953;48.810;9.204;2023-07-13T15:30:39;0.10;;;0.10;;